Time;durP1;ratioP1;P1;durP2;ratioP2;P2;SDS_P1;SDS_P2;PMS_P1;PMS_P2;Temp;Humidity;BMP_temperature;BMP_pressure;BME280_temperature;BME280_humidity;BME280_pressure;Samples;Min_cycle;Max_cycle;Signal;HPM_P1;HPM_P2
2022/01/12 00:00:45;;;;;;;;;;;4.60;99.90;;;;;;5123746;27;19912;-71
2022/01/12 00:03:11;;;;;;;;;;;4.60;99.90;;;;;;5127846;27;19926;-71
2022/01/12 00:05:37;;;;;;;;;;;4.50;99.90;;;;;;5125507;27;20400;-70
2022/01/12 00:08:03;;;;;;;;;;;4.50;99.90;;;;;;5121632;27;19918;-70
2022/01/12 00:10:29;;;;;;;;;;;4.60;99.90;;;;;;5118579;27;19911;-71
2022/01/12 00:12:54;;;;;;;;;;;4.70;99.90;;;;;;5123509;27;20276;-71
2022/01/12 00:15:20;;;;;;;;;;;4.70;99.90;;;;;;5121784;27;19926;-71
2022/01/12 00:17:46;;;;;;;;;;;4.70;99.90;;;;;;5126822;27;19934;-71
2022/01/12 00:20:11;;;;;;;;;;;4.80;99.90;;;;;;5125877;27;19911;-69
2022/01/12 00:22:39;;;;;;;;;;;4.80;99.90;;;;;;5121367;27;19919;-70
2022/01/12 00:25:23;;;;;;;;;;;4.80;99.90;;;;;;5120752;27;19920;-70
2022/01/12 00:33:18;;;;;;;;;;;4.80;99.90;;;;;;5120534;27;19918;-71
2022/01/12 00:35:44;;;;;;;;;;;4.90;99.90;;;;;;5116840;27;20008;-71
2022/01/12 00:38:11;;;;;;;;;;;4.90;99.90;;;;;;5120397;27;19964;-69
2022/01/12 00:40:38;;;;;;;;;;;4.90;99.90;;;;;;5121924;27;19976;-70
2022/01/12 00:43:03;;;;;;;;;;;4.90;99.90;;;;;;5115179;27;19915;-70
2022/01/12 00:45:29;;;;;;;;;;;4.90;99.90;;;;;;5123876;27;19912;-70
2022/01/12 00:47:54;;;;;;;;;;;4.90;99.90;;;;;;5118258;27;20011;-70
2022/01/12 00:50:20;;;;;;;;;;;4.80;99.90;;;;;;5123936;27;20042;-70
2022/01/12 00:52:48;;;;;;;;;;;4.80;99.90;;;;;;5127936;27;19922;-71
2022/01/12 00:55:13;;;;;;;;;;;4.80;99.90;;;;;;5130838;27;19911;-71
2022/01/12 00:57:40;;;;;;;;;;;4.80;99.90;;;;;;5126477;27;19915;-70
2022/01/12 01:00:07;;;;;;;;;;;4.80;99.90;;;;;;5125388;27;20296;-71
2022/01/12 01:02:32;;;;;;;;;;;4.70;99.90;;;;;;5122976;27;19916;-72
2022/01/12 01:05:00;;;;;;;;;;;4.80;99.90;;;;;;5128693;27;20036;-69
2022/01/12 01:07:26;;;;;;;;;;;4.80;99.90;;;;;;5118464;27;19920;-69
2022/01/12 01:10:04;;;;;;;;;;;4.60;99.90;;;;;;5123595;27;20332;-69
2022/01/12 01:12:31;;;;;;;;;;;4.80;99.90;;;;;;5122460;27;19964;-69
2022/01/12 01:15:04;;;;;;;;;;;4.80;99.90;;;;;;5127864;27;19911;-70
2022/01/12 01:25:36;;;;;;;;;;;4.70;99.90;;;;;;5122274;27;19918;-71
2022/01/12 01:28:03;;;;;;;;;;;4.70;99.90;;;;;;5127784;27;19916;-71
2022/01/12 01:30:29;;;;;;;;;;;4.70;99.90;;;;;;5127302;27;20014;-71
2022/01/12 01:32:57;;;;;;;;;;;4.70;99.90;;;;;;5117009;27;19927;-71
2022/01/12 01:35:26;;;;;;;;;;;4.70;99.90;;;;;;5123759;27;20314;-71
2022/01/12 01:37:52;;;;;;;;;;;4.70;99.90;;;;;;5124937;27;20088;-70
2022/01/12 01:40:17;;;;;;;;;;;4.70;99.90;;;;;;5116389;27;19961;-70
2022/01/12 01:53:43;;;;;;;;;;;4.30;99.90;;;;;;5119195;27;19939;-70
2022/01/12 01:56:09;;;;;;;;;;;4.30;99.90;;;;;;5123658;27;20376;-70
2022/01/12 01:58:35;;;;;;;;;;;4.10;99.90;;;;;;5120935;27;19911;-70
2022/01/12 02:01:00;;;;;;;;;;;4.30;99.90;;;;;;5115874;27;19916;-71
2022/01/12 02:03:28;;;;;;;;;;;4.40;99.90;;;;;;5123972;28;20002;-71
2022/01/12 02:05:53;;;;;;;;;;;4.40;99.90;;;;;;5116199;28;20330;-71
2022/01/12 02:08:19;;;;;;;;;;;4.40;99.90;;;;;;5116182;28;19911;-70
2022/01/12 02:10:44;;;;;;;;;;;4.50;99.90;;;;;;5108728;28;20391;-70
2022/01/12 02:13:10;;;;;;;;;;;4.50;99.90;;;;;;5117896;28;19971;-69
2022/01/12 02:15:37;;;;;;;;;;;4.50;99.90;;;;;;5121535;28;19911;-70
2022/01/12 02:36:56;;;;;;;;;;;4.50;99.90;;;;;;5124435;28;19962;-71
2022/01/12 02:42:06;;;;;;;;;;;4.50;99.90;;;;;;5124390;28;19918;-69
2022/01/12 02:55:28;;;;;;;;;;;4.70;99.90;;;;;;5127397;27;20010;-69
2022/01/12 02:57:55;;;;;;;;;;;4.70;99.90;;;;;;5124033;27;20435;-68
2022/01/12 03:00:23;;;;;;;;;;;4.90;99.90;;;;;;5129256;27;20330;-69
2022/01/12 03:02:50;;;;;;;;;;;4.90;99.90;;;;;;5125659;27;19927;-69
2022/01/12 03:07:44;;;;;;;;;;;5.00;99.90;;;;;;5120309;28;19911;-71
2022/01/12 03:10:11;;;;;;;;;;;4.90;99.90;;;;;;5124338;27;19926;-71
2022/01/12 03:12:40;;;;;;;;;;;4.90;99.90;;;;;;5124605;27;19969;-70
2022/01/12 03:15:06;;;;;;;;;;;5.00;99.90;;;;;;5132413;27;19907;-70
2022/01/12 03:17:32;;;;;;;;;;;4.90;99.90;;;;;;5121463;27;20369;-70
2022/01/12 03:19:58;;;;;;;;;;;4.90;99.90;;;;;;5128148;27;20281;-70
2022/01/12 03:22:23;;;;;;;;;;;4.90;99.90;;;;;;5127737;27;19920;-71
2022/01/12 03:24:49;;;;;;;;;;;4.80;99.90;;;;;;5128430;27;19916;-70
2022/01/12 03:27:16;;;;;;;;;;;4.80;99.90;;;;;;5131230;27;19911;-70
2022/01/12 03:29:43;;;;;;;;;;;4.90;99.90;;;;;;5131700;27;19915;-70
2022/01/12 03:32:11;;;;;;;;;;;4.90;99.90;;;;;;5128232;27;19976;-71
2022/01/12 03:34:39;;;;;;;;;;;4.90;99.90;;;;;;5129650;27;20468;-70
2022/01/12 03:37:39;;;;;;;;;;;4.90;99.90;;;;;;5126296;27;20318;-69
2022/01/12 03:40:03;;;;;;;;;;;4.80;99.90;;;;;;5126231;27;19934;-69
2022/01/12 03:42:28;;;;;;;;;;;4.80;99.90;;;;;;5129072;27;19915;-68
2022/01/12 03:44:54;;;;;;;;;;;4.80;99.90;;;;;;5129176;27;19919;-69
2022/01/12 03:47:19;;;;;;;;;;;4.80;99.90;;;;;;5125397;27;19975;-70
2022/01/12 03:49:46;;;;;;;;;;;4.80;99.90;;;;;;5125835;27;20398;-70
2022/01/12 03:52:12;;;;;;;;;;;4.80;99.90;;;;;;5130951;27;19915;-70
2022/01/12 03:54:37;;;;;;;;;;;4.80;99.90;;;;;;5133380;27;20441;-70
2022/01/12 03:57:03;;;;;;;;;;;4.80;99.90;;;;;;5126626;27;19916;-70
2022/01/12 03:59:29;;;;;;;;;;;4.80;99.90;;;;;;5126083;27;19915;-70
2022/01/12 04:01:54;;;;;;;;;;;4.70;99.90;;;;;;5128333;27;19956;-70
2022/01/12 04:04:29;;;;;;;;;;;4.70;99.90;;;;;;5132953;27;20348;-70
2022/01/12 04:09:39;;;;;;;;;;;4.70;99.90;;;;;;5127990;27;19957;-69
2022/01/12 04:12:04;;;;;;;;;;;4.70;99.90;;;;;;5121965;27;19923;-71
2022/01/12 04:14:30;;;;;;;;;;;4.70;99.90;;;;;;5126493;27;19912;-70
2022/01/12 04:16:55;;;;;;;;;;;4.60;99.90;;;;;;5125712;27;19912;-71
2022/01/12 04:19:24;;;;;;;;;;;4.60;99.90;;;;;;5129360;27;20006;-71
2022/01/12 04:21:50;;;;;;;;;;;4.60;99.90;;;;;;5125815;27;20092;-70
2022/01/12 04:24:15;;;;;;;;;;;4.50;99.90;;;;;;5131241;27;20389;-69
2022/01/12 04:26:41;;;;;;;;;;;4.50;99.90;;;;;;5121970;27;19965;-70
2022/01/12 04:29:07;;;;;;;;;;;4.50;99.90;;;;;;5130600;27;19911;-70
2022/01/12 04:31:33;;;;;;;;;;;4.50;99.90;;;;;;5127473;27;19923;-70
2022/01/12 04:33:59;;;;;;;;;;;4.50;99.90;;;;;;5127281;27;19916;-70
2022/01/12 04:36:25;;;;;;;;;;;4.60;99.90;;;;;;5123966;27;20470;-70
2022/01/12 04:38:50;;;;;;;;;;;4.60;99.90;;;;;;5118117;27;20032;-71
2022/01/12 04:41:16;;;;;;;;;;;4.60;99.90;;;;;;5124382;27;19912;-69
2022/01/12 04:43:42;;;;;;;;;;;4.60;99.90;;;;;;5127262;27;19954;-70
2022/01/12 04:46:22;;;;;;;;;;;4.60;99.90;;;;;;5128832;27;20237;-71
2022/01/12 04:49:48;;;;;;;;;;;4.60;99.90;;;;;;5127987;27;19911;-71
2022/01/12 04:51:42;;;;;;;;;;;4.60;99.90;;;;;;5118485;27;20322;-71
2022/01/12 04:54:08;;;;;;;;;;;4.60;99.90;;;;;;5128349;27;19964;-71
2022/01/12 04:56:33;;;;;;;;;;;4.70;99.90;;;;;;5127462;27;19915;-71
2022/01/12 04:58:59;;;;;;;;;;;4.70;99.90;;;;;;5130420;27;19916;-71
2022/01/12 05:01:27;;;;;;;;;;;4.80;99.90;;;;;;5121665;27;19949;-71
2022/01/12 05:14:21;;;;;;;;;;;4.90;99.90;;;;;;5128341;27;20428;-70
2022/01/12 05:16:47;;;;;;;;;;;4.90;99.90;;;;;;5127890;27;19916;-71
2022/01/12 05:19:12;;;;;;;;;;;4.80;99.90;;;;;;5120744;27;20393;-71
2022/01/12 05:21:38;;;;;;;;;;;4.80;99.90;;;;;;5125620;27;19912;-69
2022/01/12 05:24:06;;;;;;;;;;;4.80;99.90;;;;;;5120073;27;20292;-70
2022/01/12 05:26:35;;;;;;;;;;;4.80;99.90;;;;;;5127152;27;19926;-70
2022/01/12 05:29:00;;;;;;;;;;;4.90;99.90;;;;;;5130182;27;19918;-71
2022/01/12 05:31:26;;;;;;;;;;;4.90;99.90;;;;;;5127168;27;19911;-68
2022/01/12 05:33:52;;;;;;;;;;;4.90;99.90;;;;;;5130070;27;19907;-71
2022/01/12 05:36:18;;;;;;;;;;;5.00;99.90;;;;;;5131176;27;19919;-71
2022/01/12 05:38:45;;;;;;;;;;;4.90;99.90;;;;;;5127624;27;19950;-69
2022/01/12 05:41:11;;;;;;;;;;;4.90;99.90;;;;;;5127997;27;20432;-70
2022/01/12 05:43:38;;;;;;;;;;;4.90;99.90;;;;;;5112212;27;19912;-69
2022/01/12 05:46:10;;;;;;;;;;;4.90;99.90;;;;;;5129628;27;19915;-70
2022/01/12 05:51:22;;;;;;;;;;;4.90;99.90;;;;;;5131103;27;19942;-70
2022/01/12 05:53:48;;;;;;;;;;;4.90;99.90;;;;;;5123617;27;20325;-72
2022/01/12 05:56:14;;;;;;;;;;;5.00;99.90;;;;;;5131044;27;20073;-71
2022/01/12 05:58:39;;;;;;;;;;;4.90;99.90;;;;;;5121173;27;19911;-68
2022/01/12 06:01:05;;;;;;;;;;;4.80;99.90;;;;;;5130807;27;19930;-70
2022/01/12 06:03:31;;;;;;;;;;;4.80;99.90;;;;;;5124580;27;19920;-70
2022/01/12 06:05:57;;;;;;;;;;;4.90;99.90;;;;;;5130196;28;20407;-69
2022/01/12 06:08:22;;;;;;;;;;;4.90;99.90;;;;;;5123362;28;19943;-70
2022/01/12 06:10:48;;;;;;;;;;;4.90;99.90;;;;;;5119331;28;19912;-72
2022/01/12 06:13:13;;;;;;;;;;;4.90;99.90;;;;;;5126195;28;19964;-70
2022/01/12 06:15:39;;;;;;;;;;;4.90;99.90;;;;;;5129925;27;19969;-70
2022/01/12 06:18:05;;;;;;;;;;;4.90;99.90;;;;;;5129579;27;19959;-68
2022/01/12 06:20:30;;;;;;;;;;;4.90;99.90;;;;;;5131021;28;20389;-69
2022/01/12 06:22:56;;;;;;;;;;;5.00;99.90;;;;;;5124013;27;19915;-68
2022/01/12 06:25:21;;;;;;;;;;;5.00;99.90;;;;;;5120461;28;19912;-69
2022/01/12 06:27:53;;;;;;;;;;;4.90;99.90;;;;;;5128633;28;19999;-69
2022/01/12 06:32:54;;;;;;;;;;;4.90;99.90;;;;;;5129039;27;20000;-68
2022/01/12 06:35:20;;;;;;;;;;;4.90;99.90;;;;;;5131583;28;19918;-68
2022/01/12 06:37:46;;;;;;;;;;;4.80;99.90;;;;;;5117211;28;19911;-69
2022/01/12 06:40:15;;;;;;;;;;;4.80;99.90;;;;;;5126629;28;19915;-69
2022/01/12 06:42:41;;;;;;;;;;;4.70;99.90;;;;;;5129741;28;20000;-70
2022/01/12 06:45:07;;;;;;;;;;;4.80;99.90;;;;;;5129175;27;20302;-71
2022/01/12 06:47:33;;;;;;;;;;;4.80;99.90;;;;;;5133789;27;20014;-68
2022/01/12 06:49:58;;;;;;;;;;;4.70;99.90;;;;;;5132480;27;19908;-68
2022/01/12 06:52:24;;;;;;;;;;;4.70;99.90;;;;;;5131498;27;20309;-69
2022/01/12 06:54:49;;;;;;;;;;;4.80;99.90;;;;;;5130187;27;19924;-69
2022/01/12 06:57:16;;;;;;;;;;;4.70;99.90;;;;;;5134386;27;19976;-69
2022/01/12 06:59:41;;;;;;;;;;;4.80;99.90;;;;;;5133718;27;19922;-68
2022/01/12 07:02:07;;;;;;;;;;;4.70;99.90;;;;;;5134415;27;19916;-70
2022/01/12 07:04:33;;;;;;;;;;;4.60;99.90;;;;;;5125821;27;20305;-69
2022/01/12 07:06:58;;;;;;;;;;;4.60;99.90;;;;;;5131700;27;20011;-69
2022/01/12 07:09:24;;;;;;;;;;;4.40;99.90;;;;;;5134705;27;19990;-68
2022/01/12 07:11:50;;;;;;;;;;;4.30;99.90;;;;;;5132470;27;19912;-68
2022/01/12 07:14:15;;;;;;;;;;;4.10;99.90;;;;;;5132660;27;19911;-68
2022/01/12 07:16:41;;;;;;;;;;;4.00;99.90;;;;;;5135004;27;19918;-68
2022/01/12 07:19:06;;;;;;;;;;;4.00;99.90;;;;;;5125740;27;20010;-68
2022/01/12 07:21:32;;;;;;;;;;;4.00;99.90;;;;;;5132936;27;19919;-68
2022/01/12 07:23:57;;;;;;;;;;;3.90;99.90;;;;;;5126628;27;20100;-69
2022/01/12 07:26:23;;;;;;;;;;;4.00;99.90;;;;;;5130871;27;19907;-68
2022/01/12 07:28:49;;;;;;;;;;;4.00;99.90;;;;;;5130309;27;20333;-68
2022/01/12 07:31:15;;;;;;;;;;;4.00;99.90;;;;;;5133361;27;20007;-69
2022/01/12 07:33:41;;;;;;;;;;;4.10;99.90;;;;;;5130653;27;19911;-69
2022/01/12 07:36:06;;;;;;;;;;;4.10;99.90;;;;;;5133964;27;19912;-68
2022/01/12 07:38:32;;;;;;;;;;;4.20;99.90;;;;;;5121429;27;20010;-70
2022/01/12 07:40:58;;;;;;;;;;;4.00;99.90;;;;;;5133631;27;19915;-69
2022/01/12 07:43:23;;;;;;;;;;;4.00;99.90;;;;;;5132891;27;19951;-69
2022/01/12 07:45:49;;;;;;;;;;;4.10;99.90;;;;;;5126751;27;19912;-67
2022/01/12 07:48:14;;;;;;;;;;;4.30;99.90;;;;;;5133047;27;19912;-69
2022/01/12 07:50:40;;;;;;;;;;;4.40;99.90;;;;;;5132614;27;19915;-69
2022/01/12 07:53:06;;;;;;;;;;;4.50;99.90;;;;;;5130832;27;19911;-69
2022/01/12 07:55:32;;;;;;;;;;;4.50;99.90;;;;;;5124624;27;19911;-68
2022/01/12 07:57:58;;;;;;;;;;;4.60;99.90;;;;;;5134241;27;19908;-68
2022/01/12 08:00:23;;;;;;;;;;;4.70;99.90;;;;;;5124649;27;20010;-68
2022/01/12 08:02:50;;;;;;;;;;;4.80;99.90;;;;;;5133966;27;20051;-69
2022/01/12 08:05:16;;;;;;;;;;;4.80;99.90;;;;;;5133445;27;19988;-68
2022/01/12 08:07:41;;;;;;;;;;;4.90;99.90;;;;;;5130770;27;19915;-69
2022/01/12 08:10:08;;;;;;;;;;;5.10;99.90;;;;;;5124450;27;19919;-69
2022/01/12 08:12:34;;;;;;;;;;;5.00;99.90;;;;;;5129363;27;19915;-69
2022/01/12 08:14:59;;;;;;;;;;;4.90;99.90;;;;;;5125397;27;19911;-69
2022/01/12 08:17:25;;;;;;;;;;;4.70;99.90;;;;;;5129022;27;19918;-70
2022/01/12 08:19:54;;;;;;;;;;;4.80;99.90;;;;;;5128834;27;19911;-68
2022/01/12 08:22:19;;;;;;;;;;;4.90;99.90;;;;;;5132237;27;19916;-69
2022/01/12 08:24:45;;;;;;;;;;;4.80;99.90;;;;;;5135273;27;19915;-70
2022/01/12 08:27:11;;;;;;;;;;;4.90;99.90;;;;;;5113939;27;19979;-69
2022/01/12 08:29:36;;;;;;;;;;;5.20;99.90;;;;;;5125336;27;20445;-69
2022/01/12 08:32:02;;;;;;;;;;;5.30;99.90;;;;;;5132461;27;19915;-69
2022/01/12 08:34:28;;;;;;;;;;;5.20;99.90;;;;;;5125749;27;19947;-69
2022/01/12 08:36:53;;;;;;;;;;;5.10;99.90;;;;;;5134432;27;19907;-67
2022/01/12 08:39:19;;;;;;;;;;;5.00;99.90;;;;;;5133153;27;20486;-68
2022/01/12 08:41:45;;;;;;;;;;;5.00;99.90;;;;;;5125785;27;19912;-68
2022/01/12 08:44:10;;;;;;;;;;;5.00;99.90;;;;;;5135450;27;19912;-69
2022/01/12 08:46:38;;;;;;;;;;;5.10;99.90;;;;;;5131216;27;20328;-69
2022/01/12 08:49:04;;;;;;;;;;;5.10;99.90;;;;;;5134900;27;19907;-67
2022/01/12 08:51:29;;;;;;;;;;;5.10;99.90;;;;;;5136559;27;19965;-69
2022/01/12 08:53:55;;;;;;;;;;;5.20;99.90;;;;;;5130693;27;19912;-69
2022/01/12 08:56:21;;;;;;;;;;;5.20;99.90;;;;;;5128294;27;19919;-70
2022/01/12 08:58:47;;;;;;;;;;;5.10;99.90;;;;;;5129359;27;20033;-71
2022/01/12 09:01:12;;;;;;;;;;;5.10;99.90;;;;;;5139103;27;19908;-70
2022/01/12 09:03:39;;;;;;;;;;;5.20;99.90;;;;;;5138570;27;19916;-70
2022/01/12 09:06:05;;;;;;;;;;;5.30;99.90;;;;;;5140298;27;20007;-69
2022/01/12 09:08:32;;;;;;;;;;;5.40;99.90;;;;;;5136579;27;19938;-70
2022/01/12 09:10:57;;;;;;;;;;;5.40;99.90;;;;;;5127656;27;19961;-68
2022/01/12 09:13:23;;;;;;;;;;;5.50;99.90;;;;;;5125177;27;19965;-70
2022/01/12 09:15:49;;;;;;;;;;;5.70;99.90;;;;;;5131659;27;20384;-69
2022/01/12 09:18:15;;;;;;;;;;;5.80;99.90;;;;;;5125435;27;19994;-71
2022/01/12 09:20:41;;;;;;;;;;;5.90;99.90;;;;;;5130924;27;19980;-70
2022/01/12 09:23:07;;;;;;;;;;;5.90;99.90;;;;;;5130745;27;19946;-70
2022/01/12 09:25:35;;;;;;;;;;;5.90;99.90;;;;;;5133335;27;19915;-70
2022/01/12 09:28:02;;;;;;;;;;;6.00;99.50;;;;;;5122574;27;19915;-71
2022/01/12 09:30:28;;;;;;;;;;;6.10;99.20;;;;;;5130479;27;19930;-71
2022/01/12 09:32:54;;;;;;;;;;;6.10;99.60;;;;;;5130362;27;19981;-70
2022/01/12 09:35:20;;;;;;;;;;;6.10;99.00;;;;;;5130794;27;20384;-69
2022/01/12 09:37:45;;;;;;;;;;;6.10;99.60;;;;;;5125151;27;20010;-70
2022/01/12 09:40:12;;;;;;;;;;;6.10;99.50;;;;;;5128707;27;19944;-67
2022/01/12 09:42:37;;;;;;;;;;;6.00;99.50;;;;;;5131926;27;19916;-68
2022/01/12 09:45:03;;;;;;;;;;;6.00;99.60;;;;;;5124868;27;20356;-69
2022/01/12 09:47:29;;;;;;;;;;;6.10;99.40;;;;;;5132265;27;20373;-68
2022/01/12 09:49:55;;;;;;;;;;;6.10;98.60;;;;;;5132404;27;20020;-69
2022/01/12 09:52:21;;;;;;;;;;;6.10;98.80;;;;;;5122573;27;20014;-71
2022/01/12 09:54:46;;;;;;;;;;;6.00;98.80;;;;;;5133269;27;20393;-70
2022/01/12 09:57:12;;;;;;;;;;;6.00;99.00;;;;;;5131759;27;19946;-72
2022/01/12 09:59:38;;;;;;;;;;;6.10;99.00;;;;;;5130975;27;19950;-70
2022/01/12 10:02:13;;;;;;;;;;;6.10;98.90;;;;;;5131126;27;19959;-72
2022/01/12 10:04:38;;;;;;;;;;;6.00;98.90;;;;;;5129981;27;19915;-70
2022/01/12 10:07:04;;;;;;;;;;;6.10;98.60;;;;;;5127185;28;19919;-69
2022/01/12 10:09:32;;;;;;;;;;;6.10;98.40;;;;;;5128076;27;19915;-69
2022/01/12 10:12:00;;;;;;;;;;;6.20;98.60;;;;;;5130062;27;19920;-69
2022/01/12 10:14:46;;;;;;;;;;;6.10;98.50;;;;;;5131998;27;20341;-72
2022/01/12 10:17:13;;;;;;;;;;;6.20;98.60;;;;;;5128863;27;19911;-69
2022/01/12 10:19:39;;;;;;;;;;;6.30;98.50;;;;;;5123449;27;19911;-71
2022/01/12 10:22:06;;;;;;;;;;;6.40;97.60;;;;;;5127746;27;19911;-70
2022/01/12 10:24:35;;;;;;;;;;;6.50;96.70;;;;;;5135527;27;19919;-70
2022/01/12 10:27:01;;;;;;;;;;;6.70;96.60;;;;;;5136567;27;19915;-70
2022/01/12 10:29:27;;;;;;;;;;;6.80;96.30;;;;;;5135186;27;20373;-69
2022/01/12 10:31:57;;;;;;;;;;;6.90;95.40;;;;;;5136096;27;19907;-70
2022/01/12 10:34:24;;;;;;;;;;;7.00;95.40;;;;;;5132282;27;19959;-70
2022/01/12 10:36:50;;;;;;;;;;;7.10;94.80;;;;;;5135165;27;19931;-70
2022/01/12 10:39:17;;;;;;;;;;;7.10;95.50;;;;;;5133319;27;20011;-68
2022/01/12 10:41:52;;;;;;;;;;;7.10;94.80;;;;;;5135953;27;19907;-70
2022/01/12 10:44:18;;;;;;;;;;;7.10;94.40;;;;;;5135180;27;20316;-72
2022/01/12 10:46:44;;;;;;;;;;;7.10;95.30;;;;;;5135550;27;19907;-69
2022/01/12 10:49:17;;;;;;;;;;;7.20;95.30;;;;;;5124013;27;19912;-72
2022/01/12 10:51:42;;;;;;;;;;;7.30;96.20;;;;;;5135485;27;19912;-70
2022/01/12 10:54:08;;;;;;;;;;;7.30;95.00;;;;;;5133094;27;20392;-71
2022/01/12 10:56:34;;;;;;;;;;;7.30;95.60;;;;;;5134710;27;19930;-71
2022/01/12 10:59:00;;;;;;;;;;;7.40;95.70;;;;;;5133348;27;20383;-70
2022/01/12 11:01:26;;;;;;;;;;;7.40;95.70;;;;;;5134058;27;20023;-67
2022/01/12 11:03:52;;;;;;;;;;;7.30;96.30;;;;;;5127434;27;19976;-70
2022/01/12 11:06:18;;;;;;;;;;;7.40;96.80;;;;;;5132779;27;20364;-71
2022/01/12 11:08:47;;;;;;;;;;;7.50;96.30;;;;;;5134990;27;20383;-69
2022/01/12 11:11:15;;;;;;;;;;;7.50;96.20;;;;;;5135968;27;19908;-69
2022/01/12 11:13:40;;;;;;;;;;;7.50;95.90;;;;;;5133703;27;19912;-71
2022/01/12 11:16:06;;;;;;;;;;;7.40;95.80;;;;;;5134250;27;19908;-69
2022/01/12 11:18:33;;;;;;;;;;;7.50;96.20;;;;;;5118417;27;19919;-70
2022/01/12 11:21:13;;;;;;;;;;;7.60;96.20;;;;;;5129846;27;19912;-71
2022/01/12 11:23:39;;;;;;;;;;;7.60;95.60;;;;;;5127246;27;19911;-68
2022/01/12 11:26:13;;;;;;;;;;;7.70;95.30;;;;;;5123512;27;20285;-70
2022/01/12 11:28:39;;;;;;;;;;;7.70;94.80;;;;;;5131952;27;19923;-70
2022/01/12 11:31:05;;;;;;;;;;;7.60;94.80;;;;;;5131104;27;19912;-69
2022/01/12 11:33:30;;;;;;;;;;;7.60;94.90;;;;;;5124005;27;19912;-70
2022/01/12 11:35:58;;;;;;;;;;;7.60;95.10;;;;;;5129627;27;19919;-70
2022/01/12 11:38:31;;;;;;;;;;;7.70;95.30;;;;;;5134821;27;19907;-70
2022/01/12 11:41:10;;;;;;;;;;;7.70;93.50;;;;;;5133683;27;19995;-71
2022/01/12 11:43:52;;;;;;;;;;;7.60;94.20;;;;;;5124228;27;19916;-70
2022/01/12 11:46:20;;;;;;;;;;;7.60;94.20;;;;;;5129147;27;20392;-71
2022/01/12 11:48:48;;;;;;;;;;;7.40;94.90;;;;;;5121155;27;19912;-72
2022/01/12 11:51:15;;;;;;;;;;;7.10;95.90;;;;;;5123377;27;20027;-68
2022/01/12 11:53:52;;;;;;;;;;;7.10;96.10;;;;;;5133583;27;20262;-69
2022/01/12 11:56:19;;;;;;;;;;;7.10;97.20;;;;;;5131680;27;19911;-69
2022/01/12 11:58:52;;;;;;;;;;;7.10;97.70;;;;;;5128325;27;19912;-69
2022/01/12 12:01:18;;;;;;;;;;;6.90;98.60;;;;;;5147140;27;19990;-71
2022/01/12 12:03:54;;;;;;;;;;;6.80;99.10;;;;;;5118236;27;20014;-68
2022/01/12 12:06:20;;;;;;;;;;;6.80;99.30;;;;;;5127861;27;19912;-69
2022/01/12 12:08:59;;;;;;;;;;;6.90;99.00;;;;;;5134260;27;20422;-71
2022/01/12 12:11:26;;;;;;;;;;;7.00;98.60;;;;;;5128382;27;19918;-68
2022/01/12 12:13:51;;;;;;;;;;;6.90;98.40;;;;;;5134451;27;19911;-68
2022/01/12 12:16:17;;;;;;;;;;;6.90;98.30;;;;;;5133712;27;20409;-68
2022/01/12 12:18:44;;;;;;;;;;;7.00;98.20;;;;;;5125730;27;19916;-68
2022/01/12 12:21:09;;;;;;;;;;;7.00;98.20;;;;;;5129921;27;19912;-67
2022/01/12 12:23:36;;;;;;;;;;;7.00;98.30;;;;;;5133324;27;20014;-69
2022/01/12 12:26:06;;;;;;;;;;;7.10;98.80;;;;;;5133510;27;20414;-67
2022/01/12 12:28:32;;;;;;;;;;;7.10;98.60;;;;;;5136194;27;19919;-68
2022/01/12 12:30:57;;;;;;;;;;;7.10;98.40;;;;;;5134716;27;19916;-70
2022/01/12 12:33:23;;;;;;;;;;;7.20;98.10;;;;;;5130727;27;19939;-72
2022/01/12 12:35:49;;;;;;;;;;;7.30;98.20;;;;;;5131993;27;20342;-72
2022/01/12 12:38:16;;;;;;;;;;;7.30;97.70;;;;;;5131288;27;20006;-70
2022/01/12 12:40:42;;;;;;;;;;;7.30;96.70;;;;;;5133939;27;19934;-70
2022/01/12 12:43:08;;;;;;;;;;;7.40;96.10;;;;;;5131399;27;19911;-69
2022/01/12 12:45:38;;;;;;;;;;;7.50;96.40;;;;;;5134874;27;19921;-68
2022/01/12 12:48:04;;;;;;;;;;;7.50;95.50;;;;;;5123611;27;19911;-69
2022/01/12 12:50:32;;;;;;;;;;;7.50;95.70;;;;;;5124668;27;19918;-68
2022/01/12 12:52:58;;;;;;;;;;;7.60;94.70;;;;;;5138969;27;19907;-70
2022/01/12 12:55:24;;;;;;;;;;;7.50;94.90;;;;;;5135830;27;19911;-70
2022/01/12 12:57:51;;;;;;;;;;;7.50;94.40;;;;;;5126356;27;19935;-70
2022/01/12 13:00:21;;;;;;;;;;;7.50;94.60;;;;;;5131597;27;20005;-70
2022/01/12 13:02:48;;;;;;;;;;;7.40;95.70;;;;;;5128700;27;19979;-68
2022/01/12 13:05:15;;;;;;;;;;;7.30;96.20;;;;;;5132958;27;19930;-69
2022/01/12 13:07:42;;;;;;;;;;;7.30;95.90;;;;;;5131190;27;19915;-68
2022/01/12 13:10:13;;;;;;;;;;;7.30;96.10;;;;;;5130520;27;19915;-68
2022/01/12 13:12:39;;;;;;;;;;;7.30;96.80;;;;;;5122863;27;19960;-68
2022/01/12 13:15:11;;;;;;;;;;;7.20;96.90;;;;;;5132427;27;19907;-69
2022/01/12 13:17:42;;;;;;;;;;;7.20;97.20;;;;;;5129516;27;19955;-69
2022/01/12 13:22:46;;;;;;;;;;;7.10;98.10;;;;;;5132455;27;19922;-72
2022/01/12 13:25:15;;;;;;;;;;;7.00;98.40;;;;;;5129424;27;19915;-70
2022/01/12 13:27:41;;;;;;;;;;;7.10;98.90;;;;;;5133233;27;19907;-69
2022/01/12 13:30:07;;;;;;;;;;;7.10;98.50;;;;;;5130524;27;20385;-71
2022/01/12 13:32:33;;;;;;;;;;;7.20;98.40;;;;;;5133368;27;20005;-69
2022/01/12 13:35:05;;;;;;;;;;;7.10;98.30;;;;;;5128832;27;20365;-67
2022/01/12 13:37:31;;;;;;;;;;;7.00;98.60;;;;;;5125839;27;20380;-70
2022/01/12 13:40:02;;;;;;;;;;;6.90;99.00;;;;;;5130602;27;20038;-70
2022/01/12 13:42:28;;;;;;;;;;;6.80;98.80;;;;;;5136311;27;19912;-71
2022/01/12 13:45:09;;;;;;;;;;;6.90;99.10;;;;;;5137602;27;20025;-70
2022/01/12 13:47:36;;;;;;;;;;;6.80;99.10;;;;;;5139257;27;19971;-70
2022/01/12 13:50:03;;;;;;;;;;;6.80;99.10;;;;;;5130887;27;19911;-68
2022/01/12 13:52:28;;;;;;;;;;;6.80;99.60;;;;;;5133757;27;19954;-68
2022/01/12 13:54:54;;;;;;;;;;;6.80;99.60;;;;;;5134899;27;20360;-70
2022/01/12 13:57:21;;;;;;;;;;;6.80;99.40;;;;;;5137098;27;19956;-69
2022/01/12 13:59:52;;;;;;;;;;;6.80;99.80;;;;;;5136741;27;19946;-69
2022/01/12 14:02:23;;;;;;;;;;;6.80;99.40;;;;;;5139051;27;20400;-69
2022/01/12 14:05:04;;;;;;;;;;;6.70;99.50;;;;;;5137131;27;20320;-70
2022/01/12 14:07:32;;;;;;;;;;;6.70;99.60;;;;;;5125142;27;19912;-68
2022/01/12 14:09:58;;;;;;;;;;;6.80;99.20;;;;;;5133095;27;19987;-70
2022/01/12 14:12:26;;;;;;;;;;;6.80;99.60;;;;;;5125604;28;19911;-69
2022/01/12 14:14:57;;;;;;;;;;;6.90;99.60;;;;;;5120862;28;19941;-69
2022/01/12 14:17:42;;;;;;;;;;;6.90;99.80;;;;;;5134601;28;19912;-68
2022/01/12 14:20:10;;;;;;;;;;;6.90;99.20;;;;;;5142463;28;19914;-67
2022/01/12 14:22:47;;;;;;;;;;;6.90;99.40;;;;;;5139884;28;19923;-69
2022/01/12 14:25:13;;;;;;;;;;;7.00;99.50;;;;;;5140748;28;20237;-69
2022/01/12 14:27:43;;;;;;;;;;;7.00;99.40;;;;;;5143974;27;19948;-69
2022/01/12 14:30:10;;;;;;;;;;;7.00;99.40;;;;;;5141862;28;19908;-69
2022/01/12 14:32:36;;;;;;;;;;;7.00;99.50;;;;;;5141085;27;19983;-70
2022/01/12 14:35:03;;;;;;;;;;;7.00;99.50;;;;;;5140330;27;20365;-69
2022/01/12 14:37:29;;;;;;;;;;;7.00;99.40;;;;;;5131774;28;19912;-70
2022/01/12 14:39:54;;;;;;;;;;;7.00;99.80;;;;;;5126705;28;19911;-72
2022/01/12 14:42:20;;;;;;;;;;;7.00;99.50;;;;;;5132227;28;19977;-68
2022/01/12 14:44:46;;;;;;;;;;;7.00;99.80;;;;;;5131171;27;19918;-71
2022/01/12 14:47:12;;;;;;;;;;;7.00;99.50;;;;;;5127697;28;19919;-71
2022/01/12 14:49:37;;;;;;;;;;;6.90;99.50;;;;;;5124016;27;20254;-70
2022/01/12 14:52:03;;;;;;;;;;;6.90;99.50;;;;;;5129763;28;20006;-72
2022/01/12 14:54:29;;;;;;;;;;;6.90;99.80;;;;;;5128565;27;19915;-70
2022/01/12 14:56:54;;;;;;;;;;;6.90;99.30;;;;;;5129833;28;19911;-68
2022/01/12 14:59:20;;;;;;;;;;;6.90;99.30;;;;;;5129702;27;19919;-71
2022/01/12 15:01:46;;;;;;;;;;;6.90;99.90;;;;;;5131911;28;20023;-71
2022/01/12 15:04:11;;;;;;;;;;;6.90;99.70;;;;;;5120250;27;20018;-72
2022/01/12 15:06:37;;;;;;;;;;;6.80;99.50;;;;;;5144851;27;19911;-69
2022/01/12 15:09:02;;;;;;;;;;;6.70;99.70;;;;;;5141886;27;20400;-70
2022/01/12 15:11:28;;;;;;;;;;;6.70;99.70;;;;;;5143368;27;19915;-68
2022/01/12 15:14:00;;;;;;;;;;;6.60;99.60;;;;;;5131427;27;20435;-69
2022/01/12 15:16:25;;;;;;;;;;;6.50;99.70;;;;;;5115617;27;19943;-67
2022/01/12 15:18:51;;;;;;;;;;;6.50;99.80;;;;;;5129549;27;19911;-68
2022/01/12 15:21:17;;;;;;;;;;;6.50;99.90;;;;;;5134257;27;19912;-69
2022/01/12 15:23:43;;;;;;;;;;;6.40;99.90;;;;;;5134106;27;19958;-68
2022/01/12 15:26:09;;;;;;;;;;;6.30;99.90;;;;;;5133439;27;19930;-71
2022/01/12 15:28:35;;;;;;;;;;;6.20;99.90;;;;;;5126594;27;19916;-68
2022/01/12 15:31:00;;;;;;;;;;;6.20;99.90;;;;;;5119032;27;19915;-70
2022/01/12 15:33:26;;;;;;;;;;;6.10;99.90;;;;;;5128114;27;19998;-70
2022/01/12 15:35:51;;;;;;;;;;;6.00;99.90;;;;;;5122620;27;19912;-67
2022/01/12 15:38:17;;;;;;;;;;;6.00;99.90;;;;;;5134761;27;19914;-69
2022/01/12 15:40:44;;;;;;;;;;;6.00;99.90;;;;;;5129753;27;19919;-68
2022/01/12 15:43:10;;;;;;;;;;;5.90;99.90;;;;;;5130052;27;20316;-68
2022/01/12 15:45:37;;;;;;;;;;;5.80;99.90;;;;;;5134499;27;19915;-70
2022/01/12 15:48:03;;;;;;;;;;;5.80;99.90;;;;;;5126365;27;20617;-69
2022/01/12 15:50:33;;;;;;;;;;;5.80;99.90;;;;;;5127333;27;19912;-70